sensor_id;sensor_type;location;lat;lon;timestamp;P1;durP1;ratioP1;P2;durP2;ratioP2
79212;SDS011;68639;52.380;9.822;2023-03-23T00:02:10;5.80;;;1.83;;
79212;SDS011;68639;52.380;9.822;2023-03-23T00:04:36;5.57;;;1.88;;
79212;SDS011;68639;52.380;9.822;2023-03-23T00:07:01;6.22;;;1.70;;
79212;SDS011;68639;52.380;9.822;2023-03-23T00:09:28;7.85;;;2.08;;
79212;SDS011;68639;52.380;9.822;2023-03-23T00:11:53;6.70;;;2.08;;
79212;SDS011;68639;52.380;9.822;2023-03-23T00:14:21;6.65;;;2.13;;
79212;SDS011;68639;52.380;9.822;2023-03-23T00:16:47;8.55;;;2.53;;
79212;SDS011;68639;52.380;9.822;2023-03-23T00:19:14;4.93;;;2.15;;
79212;SDS011;68639;52.380;9.822;2023-03-23T00:21:39;10.20;;;2.70;;
79212;SDS011;68639;52.380;9.822;2023-03-23T00:26:32;5.93;;;2.30;;
79212;SDS011;68639;52.380;9.822;2023-03-23T00:28:59;4.28;;;2.17;;
79212;SDS011;68639;52.380;9.822;2023-03-23T00:31:25;9.70;;;2.40;;
79212;SDS011;68639;52.380;9.822;2023-03-23T00:34:01;7.07;;;2.97;;
79212;SDS011;68639;52.380;9.822;2023-03-23T00:36:27;7.13;;;2.43;;
79212;SDS011;68639;52.380;9.822;2023-03-23T00:38:52;7.38;;;2.40;;
79212;SDS011;68639;52.380;9.822;2023-03-23T00:41:17;8.57;;;3.10;;
79212;SDS011;68639;52.380;9.822;2023-03-23T00:43:42;6.33;;;2.40;;
79212;SDS011;68639;52.380;9.822;2023-03-23T00:46:08;6.00;;;2.50;;
79212;SDS011;68639;52.380;9.822;2023-03-23T00:48:35;7.63;;;3.00;;
79212;SDS011;68639;52.380;9.822;2023-03-23T00:51:01;5.97;;;2.37;;
79212;SDS011;68639;52.380;9.822;2023-03-23T00:53:26;7.13;;;2.80;;
79212;SDS011;68639;52.380;9.822;2023-03-23T00:55:51;9.70;;;3.27;;
79212;SDS011;68639;52.380;9.822;2023-03-23T00:58:16;6.57;;;2.93;;
79212;SDS011;68639;52.380;9.822;2023-03-23T01:00:42;9.07;;;2.90;;
79212;SDS011;68639;52.380;9.822;2023-03-23T01:03:08;8.30;;;2.83;;
79212;SDS011;68639;52.380;9.822;2023-03-23T01:05:36;6.30;;;2.90;;
79212;SDS011;68639;52.380;9.822;2023-03-23T01:08:02;7.43;;;2.90;;
79212;SDS011;68639;52.380;9.822;2023-03-23T01:10:28;12.43;;;3.00;;
79212;SDS011;68639;52.380;9.822;2023-03-23T01:12:53;8.63;;;3.20;;
79212;SDS011;68639;52.380;9.822;2023-03-23T01:15:19;7.40;;;3.10;;
79212;SDS011;68639;52.380;9.822;2023-03-23T01:17:44;5.77;;;2.90;;
79212;SDS011;68639;52.380;9.822;2023-03-23T01:20:10;6.70;;;3.07;;
79212;SDS011;68639;52.380;9.822;2023-03-23T01:22:36;5.63;;;2.70;;
79212;SDS011;68639;52.380;9.822;2023-03-23T01:25:01;7.23;;;2.97;;
79212;SDS011;68639;52.380;9.822;2023-03-23T01:27:26;6.57;;;2.90;;
79212;SDS011;68639;52.380;9.822;2023-03-23T01:29:51;6.53;;;3.07;;
79212;SDS011;68639;52.380;9.822;2023-03-23T01:32:16;8.83;;;3.40;;
79212;SDS011;68639;52.380;9.822;2023-03-23T01:34:42;5.97;;;2.90;;
79212;SDS011;68639;52.380;9.822;2023-03-23T01:37:07;9.17;;;3.13;;
79212;SDS011;68639;52.380;9.822;2023-03-23T01:39:32;7.17;;;2.90;;
79212;SDS011;68639;52.380;9.822;2023-03-23T01:41:57;6.70;;;2.90;;
79212;SDS011;68639;52.380;9.822;2023-03-23T01:46:48;7.40;;;3.20;;
79212;SDS011;68639;52.380;9.822;2023-03-23T01:49:17;7.47;;;3.30;;
79212;SDS011;68639;52.380;9.822;2023-03-23T01:51:48;8.17;;;2.87;;
79212;SDS011;68639;52.380;9.822;2023-03-23T01:54:15;5.37;;;2.80;;
79212;SDS011;68639;52.380;9.822;2023-03-23T01:56:50;7.47;;;3.27;;
79212;SDS011;68639;52.380;9.822;2023-03-23T01:59:17;7.97;;;2.60;;
79212;SDS011;68639;52.380;9.822;2023-03-23T02:01:42;13.60;;;3.37;;
79212;SDS011;68639;52.380;9.822;2023-03-23T02:04:09;5.30;;;2.87;;
79212;SDS011;68639;52.380;9.822;2023-03-23T02:06:35;12.77;;;3.37;;
79212;SDS011;68639;52.380;9.822;2023-03-23T02:09:00;7.37;;;2.93;;
79212;SDS011;68639;52.380;9.822;2023-03-23T02:11:26;6.50;;;3.03;;
79212;SDS011;68639;52.380;9.822;2023-03-23T02:13:51;6.70;;;2.93;;
79212;SDS011;68639;52.380;9.822;2023-03-23T02:16:20;7.27;;;3.00;;
79212;SDS011;68639;52.380;9.822;2023-03-23T02:22:10;5.13;;;2.67;;
79212;SDS011;68639;52.380;9.822;2023-03-23T02:26:51;7.67;;;3.10;;
79212;SDS011;68639;52.380;9.822;2023-03-23T02:34:29;8.93;;;2.90;;
79212;SDS011;68639;52.380;9.822;2023-03-23T02:36:56;5.67;;;2.70;;
79212;SDS011;68639;52.380;9.822;2023-03-23T02:39:24;5.83;;;2.77;;
79212;SDS011;68639;52.380;9.822;2023-03-23T02:42:04;8.33;;;3.00;;
79212;SDS011;68639;52.380;9.822;2023-03-23T02:44:31;10.23;;;3.20;;
79212;SDS011;68639;52.380;9.822;2023-03-23T02:46:58;8.37;;;3.13;;
79212;SDS011;68639;52.380;9.822;2023-03-23T02:49:24;9.37;;;2.77;;
79212;SDS011;68639;52.380;9.822;2023-03-23T02:51:50;6.93;;;2.73;;
79212;SDS011;68639;52.380;9.822;2023-03-23T02:54:16;6.53;;;2.40;;
79212;SDS011;68639;52.380;9.822;2023-03-23T02:56:42;5.97;;;2.73;;
79212;SDS011;68639;52.380;9.822;2023-03-23T02:59:08;4.73;;;2.30;;
79212;SDS011;68639;52.380;9.822;2023-03-23T03:04:01;6.90;;;2.77;;
79212;SDS011;68639;52.380;9.822;2023-03-23T03:09:04;6.03;;;2.80;;
79212;SDS011;68639;52.380;9.822;2023-03-23T03:11:32;7.53;;;2.60;;
79212;SDS011;68639;52.380;9.822;2023-03-23T03:14:00;4.90;;;2.93;;
79212;SDS011;68639;52.380;9.822;2023-03-23T03:19:00;6.63;;;2.63;;
79212;SDS011;68639;52.380;9.822;2023-03-23T03:21:27;9.47;;;3.30;;
79212;SDS011;68639;52.380;9.822;2023-03-23T03:23:54;8.07;;;3.20;;
79212;SDS011;68639;52.380;9.822;2023-03-23T03:26:21;5.57;;;3.07;;
79212;SDS011;68639;52.380;9.822;2023-03-23T03:28:46;7.83;;;3.03;;
79212;SDS011;68639;52.380;9.822;2023-03-23T03:31:13;6.47;;;3.30;;
79212;SDS011;68639;52.380;9.822;2023-03-23T03:33:40;6.50;;;3.30;;
79212;SDS011;68639;52.380;9.822;2023-03-23T03:36:05;7.90;;;3.20;;
79212;SDS011;68639;52.380;9.822;2023-03-23T03:38:43;6.73;;;3.40;;
79212;SDS011;68639;52.380;9.822;2023-03-23T03:41:09;6.33;;;3.20;;
79212;SDS011;68639;52.380;9.822;2023-03-23T03:43:35;6.87;;;3.43;;
79212;SDS011;68639;52.380;9.822;2023-03-23T03:46:01;9.17;;;3.60;;
79212;SDS011;68639;52.380;9.822;2023-03-23T03:48:26;7.60;;;3.63;;
79212;SDS011;68639;52.380;9.822;2023-03-23T03:50:51;7.10;;;3.50;;
79212;SDS011;68639;52.380;9.822;2023-03-23T03:53:17;9.13;;;3.70;;
79212;SDS011;68639;52.380;9.822;2023-03-23T03:55:42;6.40;;;3.47;;
79212;SDS011;68639;52.380;9.822;2023-03-23T03:58:10;6.30;;;4.07;;
79212;SDS011;68639;52.380;9.822;2023-03-23T04:00:35;6.50;;;3.70;;
79212;SDS011;68639;52.380;9.822;2023-03-23T04:03:00;7.07;;;3.60;;
79212;SDS011;68639;52.380;9.822;2023-03-23T04:05:26;8.97;;;3.40;;
79212;SDS011;68639;52.380;9.822;2023-03-23T04:07:53;7.10;;;3.00;;
79212;SDS011;68639;52.380;9.822;2023-03-23T04:10:20;7.57;;;3.20;;
79212;SDS011;68639;52.380;9.822;2023-03-23T04:12:46;5.67;;;3.17;;
79212;SDS011;68639;52.380;9.822;2023-03-23T04:15:11;8.43;;;3.33;;
79212;SDS011;68639;52.380;9.822;2023-03-23T04:17:37;6.13;;;2.97;;
79212;SDS011;68639;52.380;9.822;2023-03-23T04:20:03;8.47;;;3.63;;
79212;SDS011;68639;52.380;9.822;2023-03-23T04:22:42;6.83;;;3.10;;
79212;SDS011;68639;52.380;9.822;2023-03-23T04:25:08;7.80;;;3.40;;
79212;SDS011;68639;52.380;9.822;2023-03-23T04:27:36;4.47;;;2.90;;
79212;SDS011;68639;52.380;9.822;2023-03-23T04:30:01;7.87;;;3.50;;
79212;SDS011;68639;52.380;9.822;2023-03-23T04:32:27;7.47;;;3.27;;
79212;SDS011;68639;52.380;9.822;2023-03-23T04:34:56;5.10;;;2.63;;
79212;SDS011;68639;52.380;9.822;2023-03-23T04:37:23;6.17;;;3.13;;
79212;SDS011;68639;52.380;9.822;2023-03-23T04:39:51;5.77;;;2.90;;
79212;SDS011;68639;52.380;9.822;2023-03-23T04:42:25;10.73;;;3.53;;
79212;SDS011;68639;52.380;9.822;2023-03-23T04:44:50;6.80;;;2.50;;
79212;SDS011;68639;52.380;9.822;2023-03-23T04:47:19;5.07;;;2.40;;
79212;SDS011;68639;52.380;9.822;2023-03-23T04:49:44;5.73;;;2.47;;
79212;SDS011;68639;52.380;9.822;2023-03-23T04:52:09;5.20;;;2.13;;
79212;SDS011;68639;52.380;9.822;2023-03-23T04:54:35;5.17;;;2.30;;
79212;SDS011;68639;52.380;9.822;2023-03-23T04:57:00;5.67;;;2.40;;
79212;SDS011;68639;52.380;9.822;2023-03-23T04:59:25;5.73;;;2.17;;
79212;SDS011;68639;52.380;9.822;2023-03-23T05:01:53;5.30;;;1.97;;
79212;SDS011;68639;52.380;9.822;2023-03-23T05:04:18;4.70;;;2.00;;
79212;SDS011;68639;52.380;9.822;2023-03-23T05:06:43;4.83;;;2.20;;
79212;SDS011;68639;52.380;9.822;2023-03-23T05:09:10;5.60;;;2.07;;
79212;SDS011;68639;52.380;9.822;2023-03-23T05:11:35;5.27;;;1.93;;
79212;SDS011;68639;52.380;9.822;2023-03-23T05:14:00;4.33;;;2.30;;
79212;SDS011;68639;52.380;9.822;2023-03-23T05:16:27;4.50;;;1.80;;
79212;SDS011;68639;52.380;9.822;2023-03-23T05:18:53;4.07;;;2.00;;
79212;SDS011;68639;52.380;9.822;2023-03-23T05:21:22;5.03;;;2.10;;
79212;SDS011;68639;52.380;9.822;2023-03-23T05:23:47;3.80;;;1.70;;
79212;SDS011;68639;52.380;9.822;2023-03-23T05:26:19;6.27;;;2.30;;
79212;SDS011;68639;52.380;9.822;2023-03-23T05:28:44;4.73;;;2.30;;
79212;SDS011;68639;52.380;9.822;2023-03-23T05:31:10;5.27;;;2.07;;
79212;SDS011;68639;52.380;9.822;2023-03-23T05:33:35;5.93;;;1.87;;
79212;SDS011;68639;52.380;9.822;2023-03-23T05:36:01;3.70;;;2.07;;
79212;SDS011;68639;52.380;9.822;2023-03-23T05:38:29;3.17;;;1.83;;
79212;SDS011;68639;52.380;9.822;2023-03-23T05:40:57;4.60;;;2.10;;
79212;SDS011;68639;52.380;9.822;2023-03-23T05:43:25;4.40;;;2.10;;
79212;SDS011;68639;52.380;9.822;2023-03-23T05:45:50;2.97;;;1.67;;
79212;SDS011;68639;52.380;9.822;2023-03-23T05:48:15;4.47;;;2.00;;
79212;SDS011;68639;52.380;9.822;2023-03-23T05:50:41;4.70;;;1.80;;
79212;SDS011;68639;52.380;9.822;2023-03-23T05:53:06;7.17;;;2.10;;
79212;SDS011;68639;52.380;9.822;2023-03-23T05:55:31;5.87;;;1.80;;
79212;SDS011;68639;52.380;9.822;2023-03-23T05:57:58;6.33;;;2.10;;
79212;SDS011;68639;52.380;9.822;2023-03-23T06:00:23;5.50;;;2.10;;
79212;SDS011;68639;52.380;9.822;2023-03-23T06:02:49;6.93;;;2.00;;
79212;SDS011;68639;52.380;9.822;2023-03-23T06:05:15;6.27;;;2.20;;
79212;SDS011;68639;52.380;9.822;2023-03-23T06:07:41;3.40;;;1.80;;
79212;SDS011;68639;52.380;9.822;2023-03-23T06:10:07;6.27;;;1.60;;
79212;SDS011;68639;52.380;9.822;2023-03-23T06:12:34;5.20;;;1.63;;
79212;SDS011;68639;52.380;9.822;2023-03-23T06:14:59;3.43;;;1.80;;
79212;SDS011;68639;52.380;9.822;2023-03-23T06:17:24;4.67;;;1.70;;
79212;SDS011;68639;52.380;9.822;2023-03-23T06:19:50;4.20;;;2.13;;
79212;SDS011;68639;52.380;9.822;2023-03-23T06:22:15;3.80;;;1.40;;
79212;SDS011;68639;52.380;9.822;2023-03-23T06:24:41;3.33;;;1.30;;
79212;SDS011;68639;52.380;9.822;2023-03-23T06:27:06;2.70;;;1.50;;
79212;SDS011;68639;52.380;9.822;2023-03-23T06:29:33;3.90;;;1.67;;
79212;SDS011;68639;52.380;9.822;2023-03-23T06:31:59;2.97;;;1.33;;
79212;SDS011;68639;52.380;9.822;2023-03-23T06:34:24;3.73;;;1.63;;
79212;SDS011;68639;52.380;9.822;2023-03-23T06:36:50;5.03;;;2.07;;
79212;SDS011;68639;52.380;9.822;2023-03-23T06:39:15;3.20;;;1.50;;
79212;SDS011;68639;52.380;9.822;2023-03-23T06:41:40;2.80;;;1.23;;
79212;SDS011;68639;52.380;9.822;2023-03-23T06:44:06;4.40;;;1.43;;
79212;SDS011;68639;52.380;9.822;2023-03-23T06:46:32;4.13;;;1.60;;
79212;SDS011;68639;52.380;9.822;2023-03-23T06:48:57;2.63;;;1.33;;
79212;SDS011;68639;52.380;9.822;2023-03-23T06:51:22;3.90;;;1.23;;
79212;SDS011;68639;52.380;9.822;2023-03-23T06:53:48;3.00;;;1.30;;
79212;SDS011;68639;52.380;9.822;2023-03-23T06:56:13;3.93;;;1.80;;
79212;SDS011;68639;52.380;9.822;2023-03-23T06:58:39;6.90;;;1.73;;
79212;SDS011;68639;52.380;9.822;2023-03-23T07:01:04;6.47;;;1.93;;
79212;SDS011;68639;52.380;9.822;2023-03-23T07:03:30;5.30;;;1.80;;
79212;SDS011;68639;52.380;9.822;2023-03-23T07:05:56;3.42;;;1.52;;
79212;SDS011;68639;52.380;9.822;2023-03-23T07:08:21;2.53;;;1.37;;
79212;SDS011;68639;52.380;9.822;2023-03-23T07:10:47;4.20;;;1.70;;
79212;SDS011;68639;52.380;9.822;2023-03-23T07:13:12;3.27;;;1.83;;
79212;SDS011;68639;52.380;9.822;2023-03-23T07:15:38;2.57;;;1.37;;
79212;SDS011;68639;52.380;9.822;2023-03-23T07:18:03;4.83;;;2.10;;
79212;SDS011;68639;52.380;9.822;2023-03-23T07:20:28;4.87;;;2.10;;
79212;SDS011;68639;52.380;9.822;2023-03-23T07:22:54;7.43;;;2.97;;
79212;SDS011;68639;52.380;9.822;2023-03-23T07:25:19;6.10;;;2.70;;
79212;SDS011;68639;52.380;9.822;2023-03-23T07:27:45;5.47;;;2.67;;
79212;SDS011;68639;52.380;9.822;2023-03-23T07:30:10;5.63;;;2.30;;
79212;SDS011;68639;52.380;9.822;2023-03-23T07:32:37;6.97;;;2.80;;
79212;SDS011;68639;52.380;9.822;2023-03-23T07:35:02;5.93;;;2.30;;
79212;SDS011;68639;52.380;9.822;2023-03-23T07:37:28;4.37;;;2.77;;
79212;SDS011;68639;52.380;9.822;2023-03-23T07:39:54;5.87;;;2.30;;
79212;SDS011;68639;52.380;9.822;2023-03-23T07:42:19;3.60;;;1.65;;
79212;SDS011;68639;52.380;9.822;2023-03-23T07:44:44;3.10;;;1.35;;
79212;SDS011;68639;52.380;9.822;2023-03-23T07:47:09;4.47;;;1.60;;
79212;SDS011;68639;52.380;9.822;2023-03-23T07:49:35;4.30;;;1.75;;
79212;SDS011;68639;52.380;9.822;2023-03-23T07:52:00;4.93;;;1.90;;
79212;SDS011;68639;52.380;9.822;2023-03-23T07:54:27;5.53;;;1.65;;
79212;SDS011;68639;52.380;9.822;2023-03-23T07:56:52;3.20;;;1.60;;
79212;SDS011;68639;52.380;9.822;2023-03-23T07:59:18;3.85;;;1.77;;
79212;SDS011;68639;52.380;9.822;2023-03-23T08:01:43;5.28;;;1.70;;
79212;SDS011;68639;52.380;9.822;2023-03-23T08:04:08;4.05;;;1.70;;
79212;SDS011;68639;52.380;9.822;2023-03-23T08:06:34;3.50;;;1.90;;
79212;SDS011;68639;52.380;9.822;2023-03-23T08:08:59;3.47;;;1.52;;
79212;SDS011;68639;52.380;9.822;2023-03-23T08:11:25;3.65;;;1.45;;
79212;SDS011;68639;52.380;9.822;2023-03-23T08:13:50;5.00;;;2.10;;
79212;SDS011;68639;52.380;9.822;2023-03-23T08:16:16;3.55;;;1.52;;
79212;SDS011;68639;52.380;9.822;2023-03-23T08:18:41;5.72;;;1.70;;
79212;SDS011;68639;52.380;9.822;2023-03-23T08:21:07;5.43;;;1.65;;
79212;SDS011;68639;52.380;9.822;2023-03-23T08:23:35;4.03;;;1.50;;
79212;SDS011;68639;52.380;9.822;2023-03-23T08:26:01;5.00;;;1.70;;
79212;SDS011;68639;52.380;9.822;2023-03-23T08:28:27;5.38;;;1.40;;
79212;SDS011;68639;52.380;9.822;2023-03-23T08:30:52;4.07;;;1.90;;
79212;SDS011;68639;52.380;9.822;2023-03-23T08:33:17;5.28;;;1.67;;
79212;SDS011;68639;52.380;9.822;2023-03-23T08:35:43;6.70;;;1.85;;
79212;SDS011;68639;52.380;9.822;2023-03-23T08:38:09;5.25;;;2.00;;
79212;SDS011;68639;52.380;9.822;2023-03-23T08:40:35;4.18;;;1.50;;
79212;SDS011;68639;52.380;9.822;2023-03-23T08:43:01;4.65;;;1.80;;
79212;SDS011;68639;52.380;9.822;2023-03-23T08:45:26;5.95;;;1.90;;
79212;SDS011;68639;52.380;9.822;2023-03-23T08:47:52;3.78;;;1.83;;
79212;SDS011;68639;52.380;9.822;2023-03-23T08:50:21;5.63;;;1.70;;
79212;SDS011;68639;52.380;9.822;2023-03-23T08:52:47;4.93;;;1.70;;
79212;SDS011;68639;52.380;9.822;2023-03-23T08:55:14;6.35;;;2.42;;
79212;SDS011;68639;52.380;9.822;2023-03-23T08:57:40;6.63;;;1.98;;
79212;SDS011;68639;52.380;9.822;2023-03-23T09:00:08;6.13;;;1.77;;
79212;SDS011;68639;52.380;9.822;2023-03-23T09:02:40;6.38;;;1.65;;
79212;SDS011;68639;52.380;9.822;2023-03-23T09:05:07;5.20;;;1.80;;
79212;SDS011;68639;52.380;9.822;2023-03-23T09:07:32;6.15;;;1.90;;
79212;SDS011;68639;52.380;9.822;2023-03-23T09:09:57;6.18;;;2.00;;
79212;SDS011;68639;52.380;9.822;2023-03-23T09:12:23;4.65;;;1.85;;
79212;SDS011;68639;52.380;9.822;2023-03-23T09:14:48;5.60;;;2.00;;
79212;SDS011;68639;52.380;9.822;2023-03-23T09:17:14;5.65;;;1.60;;
79212;SDS011;68639;52.380;9.822;2023-03-23T09:19:39;6.13;;;1.80;;
79212;SDS011;68639;52.380;9.822;2023-03-23T09:22:05;6.57;;;1.90;;
79212;SDS011;68639;52.380;9.822;2023-03-23T09:24:30;6.85;;;2.10;;
79212;SDS011;68639;52.380;9.822;2023-03-23T09:26:55;7.28;;;1.85;;
79212;SDS011;68639;52.380;9.822;2023-03-23T09:29:20;7.32;;;2.10;;
79212;SDS011;68639;52.380;9.822;2023-03-23T09:31:46;9.57;;;2.10;;
79212;SDS011;68639;52.380;9.822;2023-03-23T09:34:11;10.75;;;1.83;;
79212;SDS011;68639;52.380;9.822;2023-03-23T09:36:37;7.90;;;2.00;;
79212;SDS011;68639;52.380;9.822;2023-03-23T09:39:03;9.55;;;1.83;;
79212;SDS011;68639;52.380;9.822;2023-03-23T09:41:45;9.00;;;2.17;;
79212;SDS011;68639;52.380;9.822;2023-03-23T09:47:06;9.05;;;2.08;;
79212;SDS011;68639;52.380;9.822;2023-03-23T09:49:34;9.75;;;2.38;;
79212;SDS011;68639;52.380;9.822;2023-03-23T09:54:35;7.80;;;1.90;;
79212;SDS011;68639;52.380;9.822;2023-03-23T09:57:01;6.90;;;2.00;;
79212;SDS011;68639;52.380;9.822;2023-03-23T09:59:34;7.55;;;2.08;;
79212;SDS011;68639;52.380;9.822;2023-03-23T10:04:54;6.90;;;1.90;;
79212;SDS011;68639;52.380;9.822;2023-03-23T10:07:21;12.18;;;2.85;;
79212;SDS011;68639;52.380;9.822;2023-03-23T10:09:51;8.82;;;2.60;;
79212;SDS011;68639;52.380;9.822;2023-03-23T10:17:32;8.02;;;2.00;;
79212;SDS011;68639;52.380;9.822;2023-03-23T10:22:46;8.80;;;2.33;;
79212;SDS011;68639;52.380;9.822;2023-03-23T10:30:11;6.03;;;2.00;;
79212;SDS011;68639;52.380;9.822;2023-03-23T10:35:05;10.20;;;2.08;;
79212;SDS011;68639;52.380;9.822;2023-03-23T10:37:32;10.32;;;2.20;;
79212;SDS011;68639;52.380;9.822;2023-03-23T10:40:01;9.90;;;1.85;;
79212;SDS011;68639;52.380;9.822;2023-03-23T10:42:32;7.57;;;1.92;;
79212;SDS011;68639;52.380;9.822;2023-03-23T10:45:01;10.57;;;2.05;;
79212;SDS011;68639;52.380;9.822;2023-03-23T10:47:36;6.63;;;1.80;;
79212;SDS011;68639;52.380;9.822;2023-03-23T10:50:04;8.50;;;2.25;;
79212;SDS011;68639;52.380;9.822;2023-03-23T10:52:34;7.05;;;1.95;;
79212;SDS011;68639;52.380;9.822;2023-03-23T10:55:04;9.40;;;2.25;;
79212;SDS011;68639;52.380;9.822;2023-03-23T10:57:31;11.05;;;2.20;;
79212;SDS011;68639;52.380;9.822;2023-03-23T11:00:20;7.05;;;2.00;;
79212;SDS011;68639;52.380;9.822;2023-03-23T11:02:44;10.10;;;2.22;;
79212;SDS011;68639;52.380;9.822;2023-03-23T11:05:15;11.00;;;2.22;;
79212;SDS011;68639;52.380;9.822;2023-03-23T11:07:41;10.30;;;2.08;;
79212;SDS011;68639;52.380;9.822;2023-03-23T11:10:18;9.73;;;2.67;;
79212;SDS011;68639;52.380;9.822;2023-03-23T11:12:45;9.48;;;1.85;;
79212;SDS011;68639;52.380;9.822;2023-03-23T11:17:55;11.15;;;2.28;;
79212;SDS011;68639;52.380;9.822;2023-03-23T11:20:21;7.40;;;1.95;;
79212;SDS011;68639;52.380;9.822;2023-03-23T11:22:46;8.07;;;2.10;;
79212;SDS011;68639;52.380;9.822;2023-03-23T11:25:12;8.63;;;2.20;;
79212;SDS011;68639;52.380;9.822;2023-03-23T11:27:38;6.93;;;1.80;;
79212;SDS011;68639;52.380;9.822;2023-03-23T11:30:10;10.15;;;2.45;;
79212;SDS011;68639;52.380;9.822;2023-03-23T11:32:36;7.13;;;2.00;;
79212;SDS011;68639;52.380;9.822;2023-03-23T11:35:06;9.38;;;2.60;;
79212;SDS011;68639;52.380;9.822;2023-03-23T11:42:35;9.32;;;2.10;;
79212;SDS011;68639;52.380;9.822;2023-03-23T11:45:18;9.90;;;2.08;;
79212;SDS011;68639;52.380;9.822;2023-03-23T11:47:47;9.73;;;2.10;;
79212;SDS011;68639;52.380;9.822;2023-03-23T11:55:19;11.48;;;2.35;;
79212;SDS011;68639;52.380;9.822;2023-03-23T11:57:45;19.83;;;2.63;;
79212;SDS011;68639;52.380;9.822;2023-03-23T12:00:12;9.60;;;2.13;;
79212;SDS011;68639;52.380;9.822;2023-03-23T12:07:48;11.77;;;2.40;;
79212;SDS011;68639;52.380;9.822;2023-03-23T12:10:23;10.27;;;2.13;;
79212;SDS011;68639;52.380;9.822;2023-03-23T12:13:09;8.05;;;2.20;;
79212;SDS011;68639;52.380;9.822;2023-03-23T12:36:43;5.90;;;1.50;;
79212;SDS011;68639;52.380;9.822;2023-03-23T12:44:31;4.88;;;1.55;;
79212;SDS011;68639;52.380;9.822;2023-03-23T12:56:58;8.38;;;1.77;;
79212;SDS011;68639;52.380;9.822;2023-03-23T13:02:05;4.38;;;0.75;;
79212;SDS011;68639;52.380;9.822;2023-03-23T13:04:36;3.05;;;0.90;;
79212;SDS011;68639;52.380;9.822;2023-03-23T13:07:05;4.65;;;0.90;;
79212;SDS011;68639;52.380;9.822;2023-03-23T13:12:01;4.82;;;1.33;;
79212;SDS011;68639;52.380;9.822;2023-03-23T13:14:45;2.50;;;0.77;;
79212;SDS011;68639;52.380;9.822;2023-03-23T13:17:20;3.15;;;0.90;;
79212;SDS011;68639;52.380;9.822;2023-03-23T13:19:57;1.45;;;0.65;;
79212;SDS011;68639;52.380;9.822;2023-03-23T13:24:57;3.75;;;0.80;;
79212;SDS011;68639;52.380;9.822;2023-03-23T13:27:24;4.13;;;1.00;;
79212;SDS011;68639;52.380;9.822;2023-03-23T13:29:52;3.03;;;0.70;;
79212;SDS011;68639;52.380;9.822;2023-03-23T13:32:18;4.10;;;0.70;;
79212;SDS011;68639;52.380;9.822;2023-03-23T13:34:44;2.30;;;0.60;;
79212;SDS011;68639;52.380;9.822;2023-03-23T13:37:29;2.33;;;0.60;;
79212;SDS011;68639;52.380;9.822;2023-03-23T13:42:30;4.15;;;0.55;;
79212;SDS011;68639;52.380;9.822;2023-03-23T13:45:15;2.83;;;0.63;;
79212;SDS011;68639;52.380;9.822;2023-03-23T13:47:43;3.97;;;0.70;;
79212;SDS011;68639;52.380;9.822;2023-03-23T13:52:54;4.37;;;0.80;;
79212;SDS011;68639;52.380;9.822;2023-03-23T13:55:27;4.57;;;0.77;;
79212;SDS011;68639;52.380;9.822;2023-03-23T14:02:49;4.30;;;0.93;;
79212;SDS011;68639;52.380;9.822;2023-03-23T14:07:53;2.90;;;0.70;;
79212;SDS011;68639;52.380;9.822;2023-03-23T14:10:19;3.03;;;0.70;;
79212;SDS011;68639;52.380;9.822;2023-03-23T14:12:44;1.92;;;0.60;;
79212;SDS011;68639;52.380;9.822;2023-03-23T14:15:14;2.50;;;0.57;;
79212;SDS011;68639;52.380;9.822;2023-03-23T14:17:41;1.65;;;0.60;;
79212;SDS011;68639;52.380;9.822;2023-03-23T14:20:09;2.70;;;0.70;;
79212;SDS011;68639;52.380;9.822;2023-03-23T14:22:40;2.80;;;0.90;;
79212;SDS011;68639;52.380;9.822;2023-03-23T14:25:13;2.92;;;0.80;;
79212;SDS011;68639;52.380;9.822;2023-03-23T14:27:38;3.17;;;0.80;;
79212;SDS011;68639;52.380;9.822;2023-03-23T14:30:07;2.00;;;0.70;;
79212;SDS011;68639;52.380;9.822;2023-03-23T14:32:33;1.52;;;0.70;;
79212;SDS011;68639;52.380;9.822;2023-03-23T14:34:59;3.53;;;1.00;;
79212;SDS011;68639;52.380;9.822;2023-03-23T14:37:25;3.65;;;1.05;;
79212;SDS011;68639;52.380;9.822;2023-03-23T14:39:54;2.67;;;0.82;;
79212;SDS011;68639;52.380;9.822;2023-03-23T14:42:27;2.55;;;0.90;;
79212;SDS011;68639;52.380;9.822;2023-03-23T14:44:53;4.32;;;1.10;;
79212;SDS011;68639;52.380;9.822;2023-03-23T14:49:44;4.30;;;1.42;;
79212;SDS011;68639;52.380;9.822;2023-03-23T14:52:16;4.65;;;1.20;;
79212;SDS011;68639;52.380;9.822;2023-03-23T14:54:41;3.13;;;1.20;;
79212;SDS011;68639;52.380;9.822;2023-03-23T14:59:36;5.22;;;1.73;;
79212;SDS011;68639;52.380;9.822;2023-03-23T15:02:01;4.07;;;1.70;;
79212;SDS011;68639;52.380;9.822;2023-03-23T15:04:26;4.28;;;1.55;;
79212;SDS011;68639;52.380;9.822;2023-03-23T15:06:56;4.20;;;1.42;;
79212;SDS011;68639;52.380;9.822;2023-03-23T15:09:23;3.22;;;1.65;;
79212;SDS011;68639;52.380;9.822;2023-03-23T15:11:54;5.28;;;2.03;;
79212;SDS011;68639;52.380;9.822;2023-03-23T15:14:21;3.70;;;1.40;;
79212;SDS011;68639;52.380;9.822;2023-03-23T15:16:48;2.90;;;1.13;;
79212;SDS011;68639;52.380;9.822;2023-03-23T15:19:20;6.05;;;1.10;;
79212;SDS011;68639;52.380;9.822;2023-03-23T15:21:56;3.38;;;0.90;;
79212;SDS011;68639;52.380;9.822;2023-03-23T15:24:31;6.07;;;1.30;;
79212;SDS011;68639;52.380;9.822;2023-03-23T15:27:11;3.13;;;1.00;;
79212;SDS011;68639;52.380;9.822;2023-03-23T15:29:47;3.53;;;1.08;;
79212;SDS011;68639;52.380;9.822;2023-03-23T15:32:13;2.72;;;1.00;;
79212;SDS011;68639;52.380;9.822;2023-03-23T15:34:44;3.30;;;0.98;;
79212;SDS011;68639;52.380;9.822;2023-03-23T15:37:18;3.97;;;1.27;;
79212;SDS011;68639;52.380;9.822;2023-03-23T15:39:44;3.20;;;1.30;;
79212;SDS011;68639;52.380;9.822;2023-03-23T15:42:19;2.70;;;1.17;;
79212;SDS011;68639;52.380;9.822;2023-03-23T15:44:53;4.23;;;1.30;;
79212;SDS011;68639;52.380;9.822;2023-03-23T15:47:19;5.20;;;1.87;;
79212;SDS011;68639;52.380;9.822;2023-03-23T15:49:45;5.60;;;2.40;;
79212;SDS011;68639;52.380;9.822;2023-03-23T15:52:11;4.27;;;1.53;;
79212;SDS011;68639;52.380;9.822;2023-03-23T15:54:37;4.70;;;1.93;;
79212;SDS011;68639;52.380;9.822;2023-03-23T15:57:03;4.90;;;1.50;;
79212;SDS011;68639;52.380;9.822;2023-03-23T15:59:28;5.00;;;1.70;;
79212;SDS011;68639;52.380;9.822;2023-03-23T16:01:53;4.87;;;1.70;;
79212;SDS011;68639;52.380;9.822;2023-03-23T16:04:18;4.85;;;1.85;;
79212;SDS011;68639;52.380;9.822;2023-03-23T16:06:44;3.60;;;1.70;;
79212;SDS011;68639;52.380;9.822;2023-03-23T16:09:19;6.20;;;1.80;;
79212;SDS011;68639;52.380;9.822;2023-03-23T16:11:44;6.45;;;2.40;;
79212;SDS011;68639;52.380;9.822;2023-03-23T16:14:10;3.80;;;2.22;;
79212;SDS011;68639;52.380;9.822;2023-03-23T16:16:37;4.22;;;2.90;;
79212;SDS011;68639;52.380;9.822;2023-03-23T16:19:02;3.72;;;1.67;;
79212;SDS011;68639;52.380;9.822;2023-03-23T16:21:28;3.75;;;1.48;;
79212;SDS011;68639;52.380;9.822;2023-03-23T16:23:53;4.88;;;1.35;;
79212;SDS011;68639;52.380;9.822;2023-03-23T16:26:20;3.63;;;1.60;;
79212;SDS011;68639;52.380;9.822;2023-03-23T16:28:45;3.15;;;1.50;;
79212;SDS011;68639;52.380;9.822;2023-03-23T16:31:10;4.13;;;1.40;;
79212;SDS011;68639;52.380;9.822;2023-03-23T16:33:36;2.87;;;1.40;;
79212;SDS011;68639;52.380;9.822;2023-03-23T16:36:01;5.93;;;1.67;;
79212;SDS011;68639;52.380;9.822;2023-03-23T16:38:26;4.10;;;1.33;;
79212;SDS011;68639;52.380;9.822;2023-03-23T16:40:52;3.63;;;1.33;;
79212;SDS011;68639;52.380;9.822;2023-03-23T16:43:17;4.85;;;1.60;;
79212;SDS011;68639;52.380;9.822;2023-03-23T16:45:43;4.17;;;1.50;;
79212;SDS011;68639;52.380;9.822;2023-03-23T16:48:09;3.60;;;1.40;;
79212;SDS011;68639;52.380;9.822;2023-03-23T16:50:35;5.90;;;1.40;;
79212;SDS011;68639;52.380;9.822;2023-03-23T16:53:00;3.83;;;1.63;;
79212;SDS011;68639;52.380;9.822;2023-03-23T16:55:26;6.17;;;1.60;;